sensor_id;sensor_type;location;lat;lon;timestamp;temperature;humidity
33881;DHT22;20172;47.530;10.256;2023-03-05T00:01:08;3.30;99.90
33881;DHT22;20172;47.530;10.256;2023-03-05T00:03:34;3.30;99.90
33881;DHT22;20172;47.530;10.256;2023-03-05T00:06:00;3.40;99.90
33881;DHT22;20172;47.530;10.256;2023-03-05T00:08:26;3.30;99.90
33881;DHT22;20172;47.530;10.256;2023-03-05T00:10:58;3.30;99.90
33881;DHT22;20172;47.530;10.256;2023-03-05T00:13:24;3.30;99.90
33881;DHT22;20172;47.530;10.256;2023-03-05T00:15:50;3.40;99.90
33881;DHT22;20172;47.530;10.256;2023-03-05T00:18:15;3.40;99.90
33881;DHT22;20172;47.530;10.256;2023-03-05T00:20:41;3.40;99.90
33881;DHT22;20172;47.530;10.256;2023-03-05T00:23:07;3.50;99.90
33881;DHT22;20172;47.530;10.256;2023-03-05T00:25:38;3.50;99.90
33881;DHT22;20172;47.530;10.256;2023-03-05T00:28:05;3.50;99.90
33881;DHT22;20172;47.530;10.256;2023-03-05T00:30:31;3.60;99.90
33881;DHT22;20172;47.530;10.256;2023-03-05T00:32:57;3.50;99.90
33881;DHT22;20172;47.530;10.256;2023-03-05T00:35:22;3.50;99.90
33881;DHT22;20172;47.530;10.256;2023-03-05T00:37:48;3.60;99.90
33881;DHT22;20172;47.530;10.256;2023-03-05T00:40:14;3.60;99.90
33881;DHT22;20172;47.530;10.256;2023-03-05T00:42:39;3.60;99.90
33881;DHT22;20172;47.530;10.256;2023-03-05T00:45:06;3.50;99.90
33881;DHT22;20172;47.530;10.256;2023-03-05T00:47:31;3.50;99.90
33881;DHT22;20172;47.530;10.256;2023-03-05T00:49:57;3.60;99.90
33881;DHT22;20172;47.530;10.256;2023-03-05T00:52:28;3.70;99.90
33881;DHT22;20172;47.530;10.256;2023-03-05T00:54:53;3.80;99.90
33881;DHT22;20172;47.530;10.256;2023-03-05T00:57:19;3.80;99.90
33881;DHT22;20172;47.530;10.256;2023-03-05T00:59:45;3.70;99.90
33881;DHT22;20172;47.530;10.256;2023-03-05T01:02:10;3.70;99.90
33881;DHT22;20172;47.530;10.256;2023-03-05T01:04:36;3.70;99.90
33881;DHT22;20172;47.530;10.256;2023-03-05T01:07:03;3.70;99.90
33881;DHT22;20172;47.530;10.256;2023-03-05T01:09:29;3.60;99.90
33881;DHT22;20172;47.530;10.256;2023-03-05T01:11:54;3.70;99.90
33881;DHT22;20172;47.530;10.256;2023-03-05T01:14:20;3.70;99.90
33881;DHT22;20172;47.530;10.256;2023-03-05T01:16:47;3.60;99.90
33881;DHT22;20172;47.530;10.256;2023-03-05T01:19:13;3.50;99.90
33881;DHT22;20172;47.530;10.256;2023-03-05T01:21:38;3.30;99.90
33881;DHT22;20172;47.530;10.256;2023-03-05T01:24:04;3.10;99.90
33881;DHT22;20172;47.530;10.256;2023-03-05T01:26:30;2.90;99.90
33881;DHT22;20172;47.530;10.256;2023-03-05T01:28:55;2.80;99.90
33881;DHT22;20172;47.530;10.256;2023-03-05T01:31:21;2.80;99.90
33881;DHT22;20172;47.530;10.256;2023-03-05T01:33:47;2.70;99.90
33881;DHT22;20172;47.530;10.256;2023-03-05T01:36:13;2.80;99.90
33881;DHT22;20172;47.530;10.256;2023-03-05T01:38:44;2.80;99.90
33881;DHT22;20172;47.530;10.256;2023-03-05T01:41:10;2.90;99.90
33881;DHT22;20172;47.530;10.256;2023-03-05T01:43:36;3.00;99.90
33881;DHT22;20172;47.530;10.256;2023-03-05T01:48:35;3.00;99.90
33881;DHT22;20172;47.530;10.256;2023-03-05T01:51:01;3.10;99.90
33881;DHT22;20172;47.530;10.256;2023-03-05T01:53:28;3.00;99.90
33881;DHT22;20172;47.530;10.256;2023-03-05T01:55:54;2.90;99.90
33881;DHT22;20172;47.530;10.256;2023-03-05T01:58:19;2.90;99.90
33881;DHT22;20172;47.530;10.256;2023-03-05T02:00:45;2.90;99.90
33881;DHT22;20172;47.530;10.256;2023-03-05T02:03:12;2.90;99.90
33881;DHT22;20172;47.530;10.256;2023-03-05T02:05:39;2.90;99.90
33881;DHT22;20172;47.530;10.256;2023-03-05T02:08:06;2.90;99.90
33881;DHT22;20172;47.530;10.256;2023-03-05T02:10:33;3.00;99.90
33881;DHT22;20172;47.530;10.256;2023-03-05T02:13:01;3.00;99.90
33881;DHT22;20172;47.530;10.256;2023-03-05T02:15:28;2.90;99.90
33881;DHT22;20172;47.530;10.256;2023-03-05T02:17:54;2.90;99.90
33881;DHT22;20172;47.530;10.256;2023-03-05T02:20:24;2.90;99.90
33881;DHT22;20172;47.530;10.256;2023-03-05T02:22:50;3.00;99.90
33881;DHT22;20172;47.530;10.256;2023-03-05T02:30:24;3.30;99.90
33881;DHT22;20172;47.530;10.256;2023-03-05T02:32:50;3.30;99.90
33881;DHT22;20172;47.530;10.256;2023-03-05T02:35:16;3.40;99.90
33881;DHT22;20172;47.530;10.256;2023-03-05T02:37:41;3.50;99.90
33881;DHT22;20172;47.530;10.256;2023-03-05T02:40:07;3.50;99.90
33881;DHT22;20172;47.530;10.256;2023-03-05T02:42:33;3.50;99.90
33881;DHT22;20172;47.530;10.256;2023-03-05T02:45:00;3.50;99.90
33881;DHT22;20172;47.530;10.256;2023-03-05T02:47:25;3.60;99.90
33881;DHT22;20172;47.530;10.256;2023-03-05T02:49:51;3.60;99.90
33881;DHT22;20172;47.530;10.256;2023-03-05T02:52:16;3.60;99.90
33881;DHT22;20172;47.530;10.256;2023-03-05T02:54:42;3.60;99.90
33881;DHT22;20172;47.530;10.256;2023-03-05T02:57:07;3.50;99.90
33881;DHT22;20172;47.530;10.256;2023-03-05T02:59:33;3.50;99.90
33881;DHT22;20172;47.530;10.256;2023-03-05T03:01:58;3.50;99.90
33881;DHT22;20172;47.530;10.256;2023-03-05T03:04:24;3.60;99.90
33881;DHT22;20172;47.530;10.256;2023-03-05T03:06:50;3.60;99.90
33881;DHT22;20172;47.530;10.256;2023-03-05T03:09:15;3.70;99.90
33881;DHT22;20172;47.530;10.256;2023-03-05T03:11:41;3.80;99.90
33881;DHT22;20172;47.530;10.256;2023-03-05T03:14:06;3.80;99.90
33881;DHT22;20172;47.530;10.256;2023-03-05T03:16:33;3.80;99.90
33881;DHT22;20172;47.530;10.256;2023-03-05T03:18:59;3.80;99.90
33881;DHT22;20172;47.530;10.256;2023-03-05T03:21:25;3.80;99.90
33881;DHT22;20172;47.530;10.256;2023-03-05T03:23:51;3.80;99.90
33881;DHT22;20172;47.530;10.256;2023-03-05T03:26:17;3.80;99.90
33881;DHT22;20172;47.530;10.256;2023-03-05T03:28:43;3.80;99.90
33881;DHT22;20172;47.530;10.256;2023-03-05T03:31:10;3.70;99.90
33881;DHT22;20172;47.530;10.256;2023-03-05T03:33:35;3.70;99.90
33881;DHT22;20172;47.530;10.256;2023-03-05T03:36:02;3.70;99.90
33881;DHT22;20172;47.530;10.256;2023-03-05T03:38:28;3.80;99.90
33881;DHT22;20172;47.530;10.256;2023-03-05T03:40:53;3.80;99.90
33881;DHT22;20172;47.530;10.256;2023-03-05T03:43:19;3.70;99.90
33881;DHT22;20172;47.530;10.256;2023-03-05T03:45:46;3.70;99.90
33881;DHT22;20172;47.530;10.256;2023-03-05T03:48:12;3.70;99.90
33881;DHT22;20172;47.530;10.256;2023-03-05T03:50:41;3.70;99.90
33881;DHT22;20172;47.530;10.256;2023-03-05T03:53:06;3.70;99.90
33881;DHT22;20172;47.530;10.256;2023-03-05T03:55:32;3.70;99.90
33881;DHT22;20172;47.530;10.256;2023-03-05T03:57:58;3.70;99.90
33881;DHT22;20172;47.530;10.256;2023-03-05T04:00:23;3.70;99.90
33881;DHT22;20172;47.530;10.256;2023-03-05T04:02:49;3.80;99.90
33881;DHT22;20172;47.530;10.256;2023-03-05T04:05:14;3.70;99.90
33881;DHT22;20172;47.530;10.256;2023-03-05T04:07:40;3.70;99.90
33881;DHT22;20172;47.530;10.256;2023-03-05T04:10:06;3.60;99.90
33881;DHT22;20172;47.530;10.256;2023-03-05T04:12:32;3.50;99.90
33881;DHT22;20172;47.530;10.256;2023-03-05T04:14:57;3.50;99.90
33881;DHT22;20172;47.530;10.256;2023-03-05T04:17:23;3.50;99.90
33881;DHT22;20172;47.530;10.256;2023-03-05T04:19:48;3.40;99.90
33881;DHT22;20172;47.530;10.256;2023-03-05T04:22:14;3.30;99.90
33881;DHT22;20172;47.530;10.256;2023-03-05T04:24:40;3.30;99.90
33881;DHT22;20172;47.530;10.256;2023-03-05T04:27:05;3.20;99.90
33881;DHT22;20172;47.530;10.256;2023-03-05T04:29:31;3.20;99.90
33881;DHT22;20172;47.530;10.256;2023-03-05T04:31:57;3.30;99.90
33881;DHT22;20172;47.530;10.256;2023-03-05T04:34:23;3.30;99.90
33881;DHT22;20172;47.530;10.256;2023-03-05T04:36:48;3.40;99.90
33881;DHT22;20172;47.530;10.256;2023-03-05T04:39:14;3.40;99.90
33881;DHT22;20172;47.530;10.256;2023-03-05T04:41:39;3.50;99.90
33881;DHT22;20172;47.530;10.256;2023-03-05T04:44:05;3.40;99.90
33881;DHT22;20172;47.530;10.256;2023-03-05T04:46:30;3.50;99.90
33881;DHT22;20172;47.530;10.256;2023-03-05T04:48:56;3.60;99.90
33881;DHT22;20172;47.530;10.256;2023-03-05T04:51:22;3.70;99.90
33881;DHT22;20172;47.530;10.256;2023-03-05T04:53:47;3.70;99.90
33881;DHT22;20172;47.530;10.256;2023-03-05T04:56:13;3.70;99.90
33881;DHT22;20172;47.530;10.256;2023-03-05T04:58:38;3.70;99.90
33881;DHT22;20172;47.530;10.256;2023-03-05T05:01:04;3.60;99.90
33881;DHT22;20172;47.530;10.256;2023-03-05T05:03:30;3.60;99.90
33881;DHT22;20172;47.530;10.256;2023-03-05T05:05:56;3.60;99.90
33881;DHT22;20172;47.530;10.256;2023-03-05T05:08:22;3.70;99.90
33881;DHT22;20172;47.530;10.256;2023-03-05T05:10:58;3.70;99.90
33881;DHT22;20172;47.530;10.256;2023-03-05T05:13:24;3.70;99.90
33881;DHT22;20172;47.530;10.256;2023-03-05T05:15:50;3.80;99.90
33881;DHT22;20172;47.530;10.256;2023-03-05T05:18:16;3.80;99.90
33881;DHT22;20172;47.530;10.256;2023-03-05T05:20:41;3.80;99.90
33881;DHT22;20172;47.530;10.256;2023-03-05T05:23:07;3.80;99.90
33881;DHT22;20172;47.530;10.256;2023-03-05T05:25:32;3.80;99.90
33881;DHT22;20172;47.530;10.256;2023-03-05T05:27:58;3.80;99.90
33881;DHT22;20172;47.530;10.256;2023-03-05T05:30:23;3.80;99.90
33881;DHT22;20172;47.530;10.256;2023-03-05T05:32:50;3.80;99.90
33881;DHT22;20172;47.530;10.256;2023-03-05T05:35:16;3.80;99.90
33881;DHT22;20172;47.530;10.256;2023-03-05T05:37:41;3.80;99.90
33881;DHT22;20172;47.530;10.256;2023-03-05T05:40:07;3.70;99.90
33881;DHT22;20172;47.530;10.256;2023-03-05T05:42:33;3.60;99.90
33881;DHT22;20172;47.530;10.256;2023-03-05T05:44:59;3.60;99.90
33881;DHT22;20172;47.530;10.256;2023-03-05T05:47:27;3.60;99.90
33881;DHT22;20172;47.530;10.256;2023-03-05T05:49:53;3.60;99.90
33881;DHT22;20172;47.530;10.256;2023-03-05T05:52:19;3.70;99.90
33881;DHT22;20172;47.530;10.256;2023-03-05T05:54:45;3.70;99.90
33881;DHT22;20172;47.530;10.256;2023-03-05T05:57:10;3.60;99.90
33881;DHT22;20172;47.530;10.256;2023-03-05T05:59:36;3.60;99.90
33881;DHT22;20172;47.530;10.256;2023-03-05T06:02:02;3.50;99.90
33881;DHT22;20172;47.530;10.256;2023-03-05T06:04:28;3.50;99.90
33881;DHT22;20172;47.530;10.256;2023-03-05T06:06:53;3.50;99.90
33881;DHT22;20172;47.530;10.256;2023-03-05T06:09:19;3.60;99.90
33881;DHT22;20172;47.530;10.256;2023-03-05T06:11:45;3.60;99.90
33881;DHT22;20172;47.530;10.256;2023-03-05T06:14:11;3.70;99.90
33881;DHT22;20172;47.530;10.256;2023-03-05T06:16:37;3.70;99.90
33881;DHT22;20172;47.530;10.256;2023-03-05T06:19:03;3.70;99.90
33881;DHT22;20172;47.530;10.256;2023-03-05T06:21:32;3.70;99.90
33881;DHT22;20172;47.530;10.256;2023-03-05T06:23:57;3.70;99.90
33881;DHT22;20172;47.530;10.256;2023-03-05T06:26:23;3.70;99.90
33881;DHT22;20172;47.530;10.256;2023-03-05T06:28:50;3.70;99.90
33881;DHT22;20172;47.530;10.256;2023-03-05T06:31:17;3.60;99.90
33881;DHT22;20172;47.530;10.256;2023-03-05T06:33:43;3.60;99.90
33881;DHT22;20172;47.530;10.256;2023-03-05T06:36:10;3.60;99.90
33881;DHT22;20172;47.530;10.256;2023-03-05T06:38:36;3.60;99.90
33881;DHT22;20172;47.530;10.256;2023-03-05T06:41:02;3.60;99.90
33881;DHT22;20172;47.530;10.256;2023-03-05T06:43:30;3.70;99.90
33881;DHT22;20172;47.530;10.256;2023-03-05T06:46:17;3.80;99.90
33881;DHT22;20172;47.530;10.256;2023-03-05T06:48:42;3.90;99.90
33881;DHT22;20172;47.530;10.256;2023-03-05T06:51:12;4.00;99.90
33881;DHT22;20172;47.530;10.256;2023-03-05T06:53:38;4.00;99.90
33881;DHT22;20172;47.530;10.256;2023-03-05T06:56:04;4.00;99.90
33881;DHT22;20172;47.530;10.256;2023-03-05T06:58:29;4.00;99.90
33881;DHT22;20172;47.530;10.256;2023-03-05T07:00:55;4.00;99.90
33881;DHT22;20172;47.530;10.256;2023-03-05T07:03:20;4.10;99.90
33881;DHT22;20172;47.530;10.256;2023-03-05T07:05:46;4.00;99.90
33881;DHT22;20172;47.530;10.256;2023-03-05T07:08:11;4.00;99.90
33881;DHT22;20172;47.530;10.256;2023-03-05T07:10:40;4.00;99.90
33881;DHT22;20172;47.530;10.256;2023-03-05T07:13:07;4.00;99.90
33881;DHT22;20172;47.530;10.256;2023-03-05T07:15:36;4.00;99.90
33881;DHT22;20172;47.530;10.256;2023-03-05T07:18:02;4.00;99.90
33881;DHT22;20172;47.530;10.256;2023-03-05T07:20:29;4.00;99.90
33881;DHT22;20172;47.530;10.256;2023-03-05T07:22:54;4.10;99.90
33881;DHT22;20172;47.530;10.256;2023-03-05T07:25:20;4.00;99.90
33881;DHT22;20172;47.530;10.256;2023-03-05T07:27:46;4.00;99.90
33881;DHT22;20172;47.530;10.256;2023-03-05T07:30:12;4.10;99.90
33881;DHT22;20172;47.530;10.256;2023-03-05T07:32:38;4.10;99.90
33881;DHT22;20172;47.530;10.256;2023-03-05T07:35:04;4.10;99.90
33881;DHT22;20172;47.530;10.256;2023-03-05T07:37:29;4.10;99.90
33881;DHT22;20172;47.530;10.256;2023-03-05T07:39:55;4.20;99.90
33881;DHT22;20172;47.530;10.256;2023-03-05T07:42:21;4.20;99.90
33881;DHT22;20172;47.530;10.256;2023-03-05T07:44:46;4.30;99.90
33881;DHT22;20172;47.530;10.256;2023-03-05T07:47:12;4.40;99.90
33881;DHT22;20172;47.530;10.256;2023-03-05T07:49:37;4.50;99.90
33881;DHT22;20172;47.530;10.256;2023-03-05T07:52:06;4.50;99.90
33881;DHT22;20172;47.530;10.256;2023-03-05T07:54:31;4.50;99.90
33881;DHT22;20172;47.530;10.256;2023-03-05T07:57:05;4.60;99.90
33881;DHT22;20172;47.530;10.256;2023-03-05T07:59:31;4.70;99.90
33881;DHT22;20172;47.530;10.256;2023-03-05T08:01:57;4.90;99.90
33881;DHT22;20172;47.530;10.256;2023-03-05T08:04:23;5.00;99.90
33881;DHT22;20172;47.530;10.256;2023-03-05T08:06:48;5.00;99.90
33881;DHT22;20172;47.530;10.256;2023-03-05T08:09:16;5.10;99.90
33881;DHT22;20172;47.530;10.256;2023-03-05T08:11:41;5.10;99.90
33881;DHT22;20172;47.530;10.256;2023-03-05T08:14:07;5.10;99.90
33881;DHT22;20172;47.530;10.256;2023-03-05T08:16:33;5.20;99.90
33881;DHT22;20172;47.530;10.256;2023-03-05T08:18:58;5.30;99.90
33881;DHT22;20172;47.530;10.256;2023-03-05T08:21:28;5.30;99.90
33881;DHT22;20172;47.530;10.256;2023-03-05T08:23:54;5.30;99.90
33881;DHT22;20172;47.530;10.256;2023-03-05T08:26:20;5.40;99.90
33881;DHT22;20172;47.530;10.256;2023-03-05T08:28:47;5.50;99.90
33881;DHT22;20172;47.530;10.256;2023-03-05T08:31:12;5.60;99.90
33881;DHT22;20172;47.530;10.256;2023-03-05T08:33:38;5.50;99.90
33881;DHT22;20172;47.530;10.256;2023-03-05T08:36:04;5.60;99.90
33881;DHT22;20172;47.530;10.256;2023-03-05T08:38:30;5.60;99.90
33881;DHT22;20172;47.530;10.256;2023-03-05T08:40:56;5.50;99.90
33881;DHT22;20172;47.530;10.256;2023-03-05T08:43:21;5.50;99.90
33881;DHT22;20172;47.530;10.256;2023-03-05T08:45:47;5.50;99.90
33881;DHT22;20172;47.530;10.256;2023-03-05T08:48:14;5.60;99.90
33881;DHT22;20172;47.530;10.256;2023-03-05T08:50:39;5.80;99.90
33881;DHT22;20172;47.530;10.256;2023-03-05T08:53:05;5.70;99.90
33881;DHT22;20172;47.530;10.256;2023-03-05T08:55:31;5.90;99.90
33881;DHT22;20172;47.530;10.256;2023-03-05T08:57:56;5.90;99.90
33881;DHT22;20172;47.530;10.256;2023-03-05T09:00:22;6.10;99.90
33881;DHT22;20172;47.530;10.256;2023-03-05T09:02:47;6.10;99.90
33881;DHT22;20172;47.530;10.256;2023-03-05T09:05:13;6.00;99.90
33881;DHT22;20172;47.530;10.256;2023-03-05T09:07:38;6.20;99.90
33881;DHT22;20172;47.530;10.256;2023-03-05T09:10:04;6.40;99.90
33881;DHT22;20172;47.530;10.256;2023-03-05T09:12:30;6.40;99.90
33881;DHT22;20172;47.530;10.256;2023-03-05T09:14:55;6.50;99.90
33881;DHT22;20172;47.530;10.256;2023-03-05T09:17:21;6.60;99.90
33881;DHT22;20172;47.530;10.256;2023-03-05T09:19:47;6.60;99.90
33881;DHT22;20172;47.530;10.256;2023-03-05T09:22:12;6.50;99.90
33881;DHT22;20172;47.530;10.256;2023-03-05T09:24:38;6.50;99.90
33881;DHT22;20172;47.530;10.256;2023-03-05T09:27:03;6.60;99.90
33881;DHT22;20172;47.530;10.256;2023-03-05T09:29:30;6.80;99.90
33881;DHT22;20172;47.530;10.256;2023-03-05T09:31:56;7.10;99.90
33881;DHT22;20172;47.530;10.256;2023-03-05T09:34:22;7.50;99.90
33881;DHT22;20172;47.530;10.256;2023-03-05T09:36:48;7.60;99.90
33881;DHT22;20172;47.530;10.256;2023-03-05T09:39:14;7.60;99.90
33881;DHT22;20172;47.530;10.256;2023-03-05T09:44:40;7.80;99.90
33881;DHT22;20172;47.530;10.256;2023-03-05T09:49:50;8.10;99.90
33881;DHT22;20172;47.530;10.256;2023-03-05T09:52:20;8.20;99.90
33881;DHT22;20172;47.530;10.256;2023-03-05T09:54:48;8.40;99.90
33881;DHT22;20172;47.530;10.256;2023-03-05T09:57:16;8.50;99.90
33881;DHT22;20172;47.530;10.256;2023-03-05T10:02:16;8.70;99.90
33881;DHT22;20172;47.530;10.256;2023-03-05T10:04:44;8.70;99.90
33881;DHT22;20172;47.530;10.256;2023-03-05T10:07:20;8.70;99.90
33881;DHT22;20172;47.530;10.256;2023-03-05T10:09:53;8.70;99.90
33881;DHT22;20172;47.530;10.256;2023-03-05T10:12:25;8.80;99.90
33881;DHT22;20172;47.530;10.256;2023-03-05T10:14:52;8.90;99.90
33881;DHT22;20172;47.530;10.256;2023-03-05T10:20:03;8.70;99.90
33881;DHT22;20172;47.530;10.256;2023-03-05T10:27:40;8.80;99.90
33881;DHT22;20172;47.530;10.256;2023-03-05T10:32:53;8.80;99.90
33881;DHT22;20172;47.530;10.256;2023-03-05T10:45:22;8.70;99.90
33881;DHT22;20172;47.530;10.256;2023-03-05T10:47:50;8.70;99.90
33881;DHT22;20172;47.530;10.256;2023-03-05T10:50:18;8.70;99.90
33881;DHT22;20172;47.530;10.256;2023-03-05T10:52:44;8.70;99.90
33881;DHT22;20172;47.530;10.256;2023-03-05T10:55:19;8.90;99.90
33881;DHT22;20172;47.530;10.256;2023-03-05T10:57:45;9.10;99.90
33881;DHT22;20172;47.530;10.256;2023-03-05T11:00:21;9.20;99.90
33881;DHT22;20172;47.530;10.256;2023-03-05T11:07:59;9.50;99.90
33881;DHT22;20172;47.530;10.256;2023-03-05T11:10:25;9.60;99.90
33881;DHT22;20172;47.530;10.256;2023-03-05T11:12:50;9.60;99.90
33881;DHT22;20172;47.530;10.256;2023-03-05T11:17:42;9.30;99.90
33881;DHT22;20172;47.530;10.256;2023-03-05T11:25:56;8.90;99.60
33881;DHT22;20172;47.530;10.256;2023-03-05T11:29:12;8.90;99.90
33881;DHT22;20172;47.530;10.256;2023-03-05T11:33:54;8.60;98.90
33881;DHT22;20172;47.530;10.256;2023-03-05T11:38:49;8.60;99.40
33881;DHT22;20172;47.530;10.256;2023-03-05T11:41:17;8.90;98.80
33881;DHT22;20172;47.530;10.256;2023-03-05T11:43:44;8.90;98.60
33881;DHT22;20172;47.530;10.256;2023-03-05T11:46:10;9.00;98.50
33881;DHT22;20172;47.530;10.256;2023-03-05T11:48:37;9.20;98.20
33881;DHT22;20172;47.530;10.256;2023-03-05T11:51:07;9.00;97.90
33881;DHT22;20172;47.530;10.256;2023-03-05T11:53:37;9.10;97.70
33881;DHT22;20172;47.530;10.256;2023-03-05T12:01:05;12.00;94.90
33881;DHT22;20172;47.530;10.256;2023-03-05T12:03:33;12.90;92.90
33881;DHT22;20172;47.530;10.256;2023-03-05T12:06:01;13.80;91.30
33881;DHT22;20172;47.530;10.256;2023-03-05T12:08:32;14.20;88.20
33881;DHT22;20172;47.530;10.256;2023-03-05T12:11:00;13.80;86.30
33881;DHT22;20172;47.530;10.256;2023-03-05T12:13:30;13.40;85.20
33881;DHT22;20172;47.530;10.256;2023-03-05T12:16:07;12.90;85.50
33881;DHT22;20172;47.530;10.256;2023-03-05T12:24:02;11.90;86.80
33881;DHT22;20172;47.530;10.256;2023-03-05T12:32:04;11.50;88.80
33881;DHT22;20172;47.530;10.256;2023-03-05T12:37:11;12.00;87.10
33881;DHT22;20172;47.530;10.256;2023-03-05T12:50:04;14.30;78.20
33881;DHT22;20172;47.530;10.256;2023-03-05T12:52:31;14.80;76.50
33881;DHT22;20172;47.530;10.256;2023-03-05T12:55:03;14.70;75.30
33881;DHT22;20172;47.530;10.256;2023-03-05T12:57:37;15.20;75.10
33881;DHT22;20172;47.530;10.256;2023-03-05T13:02:34;17.00;70.30
33881;DHT22;20172;47.530;10.256;2023-03-05T13:05:13;17.40;66.10
33881;DHT22;20172;47.530;10.256;2023-03-05T13:07:41;17.60;64.80
33881;DHT22;20172;47.530;10.256;2023-03-05T13:10:19;18.30;63.20
33881;DHT22;20172;47.530;10.256;2023-03-05T13:12:49;19.10;60.50
33881;DHT22;20172;47.530;10.256;2023-03-05T13:15:17;20.60;58.10
33881;DHT22;20172;47.530;10.256;2023-03-05T13:17:53;21.60;55.20
33881;DHT22;20172;47.530;10.256;2023-03-05T13:23:01;24.10;48.30
33881;DHT22;20172;47.530;10.256;2023-03-05T13:25:26;24.60;47.30
33881;DHT22;20172;47.530;10.256;2023-03-05T13:27:52;25.20;46.10
33881;DHT22;20172;47.530;10.256;2023-03-05T13:30:26;25.50;44.40
33881;DHT22;20172;47.530;10.256;2023-03-05T13:32:54;25.60;43.50
33881;DHT22;20172;47.530;10.256;2023-03-05T13:35:22;25.80;42.60
33881;DHT22;20172;47.530;10.256;2023-03-05T13:37:47;25.80;42.60
33881;DHT22;20172;47.530;10.256;2023-03-05T13:40:29;25.80;41.80
33881;DHT22;20172;47.530;10.256;2023-03-05T13:43:07;25.70;42.10
33881;DHT22;20172;47.530;10.256;2023-03-05T13:45:33;26.30;41.10
33881;DHT22;20172;47.530;10.256;2023-03-05T13:50:25;24.70;40.90
33881;DHT22;20172;47.530;10.256;2023-03-05T13:52:51;24.30;41.80
33881;DHT22;20172;47.530;10.256;2023-03-05T13:55:17;24.10;41.40
33881;DHT22;20172;47.530;10.256;2023-03-05T13:57:45;23.30;42.00
33881;DHT22;20172;47.530;10.256;2023-03-05T14:02:56;20.80;43.70
33881;DHT22;20172;47.530;10.256;2023-03-05T14:05:24;19.20;44.30
33881;DHT22;20172;47.530;10.256;2023-03-05T14:07:51;18.00;46.60
33881;DHT22;20172;47.530;10.256;2023-03-05T14:10:27;17.20;47.40
33881;DHT22;20172;47.530;10.256;2023-03-05T14:12:54;16.40;49.10
33881;DHT22;20172;47.530;10.256;2023-03-05T14:15:25;15.40;49.80
33881;DHT22;20172;47.530;10.256;2023-03-05T14:17:52;14.50;50.60
33881;DHT22;20172;47.530;10.256;2023-03-05T14:20:31;13.80;52.60
33881;DHT22;20172;47.530;10.256;2023-03-05T14:22:57;13.50;53.60
33881;DHT22;20172;47.530;10.256;2023-03-05T14:25:33;13.10;53.60
33881;DHT22;20172;47.530;10.256;2023-03-05T14:28:18;12.90;54.70
33881;DHT22;20172;47.530;10.256;2023-03-05T14:30:45;14.20;55.00
33881;DHT22;20172;47.530;10.256;2023-03-05T14:33:11;16.70;52.00
33881;DHT22;20172;47.530;10.256;2023-03-05T14:35:37;17.90;48.90
33881;DHT22;20172;47.530;10.256;2023-03-05T14:38:04;17.30;48.60
33881;DHT22;20172;47.530;10.256;2023-03-05T14:40:33;16.00;49.30
33881;DHT22;20172;47.530;10.256;2023-03-05T14:45:28;14.10;52.30
33881;DHT22;20172;47.530;10.256;2023-03-05T14:47:55;13.50;53.10
33881;DHT22;20172;47.530;10.256;2023-03-05T14:50:22;13.00;54.30
33881;DHT22;20172;47.530;10.256;2023-03-05T14:52:48;12.80;55.10
33881;DHT22;20172;47.530;10.256;2023-03-05T14:55:15;12.50;55.50
33881;DHT22;20172;47.530;10.256;2023-03-05T14:57:41;12.70;56.00
33881;DHT22;20172;47.530;10.256;2023-03-05T15:00:25;13.50;55.60
33881;DHT22;20172;47.530;10.256;2023-03-05T15:02:51;15.10;53.80
33881;DHT22;20172;47.530;10.256;2023-03-05T15:05:17;16.30;51.90
33881;DHT22;20172;47.530;10.256;2023-03-05T15:07:43;17.10;50.70
33881;DHT22;20172;47.530;10.256;2023-03-05T15:10:09;16.30;49.80
33881;DHT22;20172;47.530;10.256;2023-03-05T15:12:36;15.10;51.30
33881;DHT22;20172;47.530;10.256;2023-03-05T15:15:03;14.70;52.70
33881;DHT22;20172;47.530;10.256;2023-03-05T15:17:35;15.00;52.20
33881;DHT22;20172;47.530;10.256;2023-03-05T15:20:02;15.90;51.90
33881;DHT22;20172;47.530;10.256;2023-03-05T15:22:31;17.00;50.30
33881;DHT22;20172;47.530;10.256;2023-03-05T15:24:57;17.60;48.90
33881;DHT22;20172;47.530;10.256;2023-03-05T15:27:22;16.60;49.20
33881;DHT22;20172;47.530;10.256;2023-03-05T15:29:48;15.60;50.60
33881;DHT22;20172;47.530;10.256;2023-03-05T15:32:13;14.40;52.00
33881;DHT22;20172;47.530;10.256;2023-03-05T15:34:39;13.50;53.10
33881;DHT22;20172;47.530;10.256;2023-03-05T15:37:05;12.50;54.10
33881;DHT22;20172;47.530;10.256;2023-03-05T15:39:31;11.80;55.60
33881;DHT22;20172;47.530;10.256;2023-03-05T15:41:57;11.30;56.80
33881;DHT22;20172;47.530;10.256;2023-03-05T15:44:23;10.80;58.00
33881;DHT22;20172;47.530;10.256;2023-03-05T15:46:48;10.50;58.90
33881;DHT22;20172;47.530;10.256;2023-03-05T15:49:14;10.40;59.50
33881;DHT22;20172;47.530;10.256;2023-03-05T15:51:39;10.40;60.10
33881;DHT22;20172;47.530;10.256;2023-03-05T15:54:05;10.50;60.10
33881;DHT22;20172;47.530;10.256;2023-03-05T15:56:31;10.50;60.00
33881;DHT22;20172;47.530;10.256;2023-03-05T15:58:58;10.40;59.90
33881;DHT22;20172;47.530;10.256;2023-03-05T16:01:23;10.20;59.90
33881;DHT22;20172;47.530;10.256;2023-03-05T16:03:49;9.80;62.10
33881;DHT22;20172;47.530;10.256;2023-03-05T16:06:15;9.60;62.60
33881;DHT22;20172;47.530;10.256;2023-03-05T16:08:44;9.40;63.60
33881;DHT22;20172;47.530;10.256;2023-03-05T16:11:10;9.20;64.60
33881;DHT22;20172;47.530;10.256;2023-03-05T16:13:37;9.00;65.60
33881;DHT22;20172;47.530;10.256;2023-03-05T16:16:03;8.90;66.60
33881;DHT22;20172;47.530;10.256;2023-03-05T16:18:30;8.80;67.40
33881;DHT22;20172;47.530;10.256;2023-03-05T16:20:56;8.70;67.70
33881;DHT22;20172;47.530;10.256;2023-03-05T16:23:21;8.60;69.00
33881;DHT22;20172;47.530;10.256;2023-03-05T16:25:47;8.50;69.80
33881;DHT22;20172;47.530;10.256;2023-03-05T16:28:12;8.20;70.10
33881;DHT22;20172;47.530;10.256;2023-03-05T16:30:38;8.20;71.10
33881;DHT22;20172;47.530;10.256;2023-03-05T16:33:04;8.00;72.10
33881;DHT22;20172;47.530;10.256;2023-03-05T16:35:29;7.90;72.80
33881;DHT22;20172;47.530;10.256;2023-03-05T16:37:55;7.80;73.30
33881;DHT22;20172;47.530;10.256;2023-03-05T16:40:21;7.80;73.60
33881;DHT22;20172;47.530;10.256;2023-03-05T16:42:46;7.70;74.20
33881;DHT22;20172;47.530;10.256;2023-03-05T16:45:12;7.50;74.40
33881;DHT22;20172;47.530;10.256;2023-03-05T16:47:39;7.40;75.30
33881;DHT22;20172;47.530;10.256;2023-03-05T16:50:05;7.30;76.10
33881;DHT22;20172;47.530;10.256;2023-03-05T16:52:31;7.30;76.50
33881;DHT22;20172;47.530;10.256;2023-03-05T16:54:56;7.10;76.70
33881;DHT22;20172;47.530;10.256;2023-03-05T16:57:22;7.10;77.40
33881;DHT22;20172;47.530;10.256;2023-03-05T16:59:50;7.10;78.50
33881;DHT22;20172;47.530;10.256;2023-03-05T17:02:15;6.80;79.30